Time;durP1;ratioP1;P1;durP2;ratioP2;P2;SDS_P1;SDS_P2;PMS_P1;PMS_P2;Temp;Humidity;BMP_temperature;BMP_pressure;BME280_temperature;BME280_humidity;BME280_pressure;Samples;Min_cycle;Max_cycle;Signal;HPM_P1;HPM_P2
2023/10/07 00:00:52;;;;;;;6.27;3.60;;;14.90;85.40;;;15.13;55.97;95861.94;5000562;28;20550;-60
2023/10/07 00:03:20;;;;;;;13.43;5.07;;;14.90;85.60;;;15.11;56.16;95871.03;5001836;28;20540;-59
2023/10/07 00:05:50;;;;;;;8.57;4.40;;;14.80;85.90;;;15.08;56.28;95863.38;5000839;28;20478;-60
2023/10/07 00:08:19;;;;;;;4.90;3.90;;;14.80;86.50;;;15.05;56.11;95860.00;5001918;28;20453;-61
2023/10/07 00:10:49;;;;;;;4.43;3.63;;;14.80;86.50;;;15.02;56.46;95856.81;5001416;28;20489;-60
2023/10/07 00:13:19;;;;;;;12.03;4.50;;;14.80;87.00;;;15.02;56.41;95867.41;5001203;28;20872;-60
2023/10/07 00:15:49;;;;;;;3.43;3.10;;;14.70;86.90;;;14.99;56.51;95852.63;5001779;28;20569;-61
2023/10/07 00:18:18;;;;;;;5.03;3.30;;;14.70;87.50;;;14.95;56.47;95851.28;5000866;28;20493;-61
2023/10/07 00:20:48;;;;;;;8.53;4.07;;;14.70;87.50;;;14.97;56.43;95846.66;5001792;28;20478;-61
2023/10/07 00:23:20;;;;;;;4.80;2.97;;;14.70;88.00;;;14.96;56.69;95847.63;5000182;28;20462;-60
2023/10/07 00:25:50;;;;;;;8.73;4.33;;;14.70;88.40;;;14.97;56.67;95848.47;5004650;28;20544;-60
2023/10/07 00:28:28;;;;;;;4.80;3.90;;;14.70;88.40;;;14.96;56.56;95842.31;5002377;28;20447;-59
2023/10/07 00:31:01;;;;;;;6.00;3.40;;;14.70;88.60;;;14.96;56.76;95837.03;4999897;28;20486;-60
2023/10/07 00:33:30;;;;;;;9.77;4.80;;;14.70;88.90;;;14.95;56.81;95840.69;5001238;28;20457;-59
2023/10/07 00:36:04;;;;;;;8.77;4.10;;;14.70;89.30;;;14.95;56.95;95835.38;5000454;28;20475;-58
2023/10/07 00:38:37;;;;;;;5.80;3.70;;;14.70;89.70;;;14.96;57.01;95836.19;5000376;28;20463;-58
2023/10/07 00:41:11;;;;;;;7.83;4.00;;;14.70;89.80;;;14.95;56.96;95839.81;5002390;28;20543;-60
2023/10/07 00:43:38;;;;;;;6.83;4.00;;;14.70;90.00;;;14.94;57.08;95838.16;4998932;28;20551;-59
2023/10/07 00:46:10;;;;;;;6.50;4.50;;;14.70;90.00;;;14.91;57.16;95825.22;5002776;28;20540;-59
2023/10/07 00:48:48;;;;;;;8.60;3.20;;;14.60;90.20;;;14.90;57.33;95831.47;5002237;28;20930;-60
2023/10/07 00:51:24;;;;;;;6.77;4.13;;;14.60;90.40;;;14.87;57.30;95822.00;5000145;28;20476;-61
2023/10/07 00:54:08;;;;;;;7.50;4.03;;;14.60;90.40;;;14.83;57.41;95828.56;5000115;28;20512;-61
2023/10/07 00:56:41;;;;;;;8.93;4.50;;;14.60;90.50;;;14.79;57.41;95819.22;5002064;28;20470;-63
2023/10/07 00:59:09;;;;;;;7.97;4.57;;;14.50;90.50;;;14.77;57.50;95826.50;5000462;28;20453;-61
2023/10/07 01:01:36;;;;;;;9.00;4.20;;;14.50;90.60;;;14.73;57.42;95827.75;5001508;28;20474;-60
2023/10/07 01:04:06;;;;;;;8.50;4.10;;;14.50;90.80;;;14.70;57.35;95820.91;4999955;28;20481;-59
2023/10/07 01:06:38;;;;;;;10.60;5.17;;;14.40;91.20;;;14.67;57.52;95822.03;5002513;28;20488;-61
2023/10/07 01:09:14;;;;;;;11.87;5.97;;;14.40;90.90;;;14.63;57.42;95823.28;5003089;28;20501;-60
2023/10/07 01:11:46;;;;;;;17.47;4.47;;;14.40;90.90;;;14.58;57.23;95822.00;5002102;28;20853;-59
2023/10/07 01:14:13;;;;;;;11.17;6.10;;;14.30;91.00;;;14.54;57.42;95824.09;4999084;28;20565;-63
2023/10/07 01:16:44;;;;;;;9.20;4.93;;;14.30;91.10;;;14.49;57.82;95831.63;5001588;28;20871;-60
2023/10/07 01:19:26;;;;;;;7.20;4.90;;;14.20;91.10;;;14.44;57.55;95831.22;4998839;28;20541;-58
2023/10/07 01:21:55;;;;;;;9.13;5.47;;;14.20;91.10;;;14.38;57.75;95827.31;4999519;28;20572;-59
2023/10/07 01:24:33;;;;;;;10.57;5.10;;;14.10;91.00;;;14.34;57.67;95831.22;5000488;28;20500;-60
2023/10/07 01:27:05;;;;;;;11.00;6.20;;;14.10;91.10;;;14.29;57.78;95830.81;5001142;28;20462;-58
2023/10/07 01:29:34;;;;;;;10.80;5.33;;;14.10;91.40;;;14.23;57.93;95826.06;4998318;28;20450;-58
2023/10/07 01:32:11;;;;;;;9.87;5.97;;;14.00;91.40;;;14.18;57.86;95828.31;5001136;28;20477;-59
2023/10/07 01:34:45;;;;;;;12.50;7.20;;;14.00;91.50;;;14.11;58.60;95830.66;4999154;28;20793;-60
2023/10/07 01:37:21;;;;;;;16.53;7.37;;;13.90;91.80;;;14.03;58.06;95823.41;5000294;28;20499;-60
2023/10/07 01:39:52;;;;;;;15.17;7.20;;;13.80;91.70;;;13.93;58.29;95830.50;5000523;28;21001;-59
2023/10/07 01:42:26;;;;;;;15.40;6.47;;;13.80;91.80;;;13.87;58.46;95833.69;4998822;28;20477;-59
2023/10/07 01:45:08;;;;;;;8.97;5.70;;;13.70;91.70;;;13.80;58.46;95838.66;5001599;28;20644;-60
2023/10/07 01:47:36;;;;;;;9.20;5.27;;;13.60;91.90;;;13.74;58.76;95834.78;4999319;28;20471;-59
2023/10/07 01:50:11;;;;;;;13.60;4.87;;;13.50;92.10;;;13.69;58.55;95830.84;5000076;28;21020;-60
2023/10/07 01:52:39;;;;;;;12.93;4.40;;;13.50;92.30;;;13.64;58.81;95825.97;5000223;28;20898;-61
2023/10/07 01:55:10;;;;;;;4.17;3.63;;;13.40;92.30;;;13.60;58.83;95828.06;4999092;28;20528;-60
2023/10/07 01:57:40;;;;;;;6.57;4.60;;;13.40;92.50;;;13.57;58.81;95822.19;5000406;28;20559;-61
2023/10/07 02:00:11;;;;;;;5.63;4.23;;;13.30;92.70;;;13.53;59.11;95824.28;4999594;28;20450;-60
2023/10/07 02:02:49;;;;;;;5.47;4.50;;;13.40;92.70;;;13.51;58.82;95828.00;5005437;28;20461;-62
2023/10/07 02:05:24;;;;;;;7.77;4.47;;;13.30;92.70;;;13.48;59.17;95818.56;5002336;28;20525;-59
2023/10/07 02:07:53;;;;;;;5.97;4.10;;;13.30;92.90;;;13.44;59.26;95812.69;5004456;28;20449;-59
2023/10/07 02:10:26;;;;;;;5.97;3.53;;;13.30;93.10;;;13.42;59.51;95819.09;5003635;28;20525;-61
2023/10/07 02:12:54;;;;;;;6.47;3.60;;;13.20;93.20;;;13.40;59.48;95821.00;5003780;28;20547;-60
2023/10/07 02:15:21;;;;;;;4.90;3.80;;;13.20;93.10;;;13.37;59.35;95814.22;5003623;28;20490;-61
2023/10/07 02:17:49;;;;;;;7.87;4.40;;;13.20;93.30;;;13.34;59.30;95803.91;5003134;28;20453;-61
2023/10/07 02:20:24;;;;;;;5.37;3.83;;;13.10;93.40;;;13.32;59.48;95803.16;5003176;28;20903;-61
2023/10/07 02:22:52;;;;;;;6.43;4.10;;;13.10;93.40;;;13.29;59.45;95800.78;5002342;28;20496;-60
2023/10/07 02:25:26;;;;;;;7.27;4.20;;;13.10;93.60;;;13.26;59.32;95804.53;5004329;28;20515;-61
2023/10/07 02:27:55;;;;;;;7.20;4.50;;;13.10;93.70;;;13.23;60.17;95804.81;5001849;28;20512;-60
2023/10/07 02:30:25;;;;;;;6.23;3.73;;;13.00;93.80;;;13.21;59.71;95804.09;5004934;28;20453;-60
2023/10/07 02:32:54;;;;;;;5.33;4.10;;;13.00;94.00;;;13.19;60.00;95807.84;5002230;28;20568;-60
2023/10/07 02:35:21;;;;;;;5.60;3.83;;;13.00;94.10;;;13.17;60.18;95805.34;5005453;28;20677;-60
2023/10/07 02:37:50;;;;;;;6.70;4.50;;;13.00;94.20;;;13.15;60.05;95802.00;5001250;28;20959;-60
2023/10/07 02:40:22;;;;;;;3.80;3.17;;;12.90;94.30;;;13.14;60.20;95810.88;5004956;28;20492;-60
2023/10/07 02:42:51;;;;;;;7.13;3.77;;;12.90;94.40;;;13.11;60.44;95805.88;5001890;28;20462;-62
2023/10/07 02:45:28;;;;;;;4.87;3.80;;;12.90;94.60;;;13.09;60.36;95808.66;5004324;28;20488;-59
2023/10/07 02:48:00;;;;;;;6.43;4.43;;;12.90;94.70;;;13.08;60.26;95803.50;5003137;28;20464;-60
2023/10/07 02:50:31;;;;;;;5.47;4.20;;;12.80;94.70;;;13.03;60.62;95800.41;5002422;28;20507;-60
2023/10/07 02:53:01;;;;;;;3.70;3.40;;;12.90;94.90;;;13.02;60.61;95804.84;5003906;28;20847;-61
2023/10/07 02:55:38;;;;;;;8.70;4.37;;;12.90;95.00;;;13.00;60.43;95811.25;5001758;28;21026;-61
2023/10/07 02:58:06;;;;;;;5.03;4.10;;;12.80;95.10;;;12.97;60.79;95814.16;5005094;28;20477;-60
2023/10/07 03:00:36;;;;;;;7.33;4.20;;;12.80;95.20;;;12.95;60.90;95809.00;5005375;28;20480;-60
2023/10/07 03:03:20;;;;;;;7.83;4.30;;;12.70;95.20;;;12.92;60.98;95809.25;5001117;28;21019;-59
2023/10/07 03:05:57;;;;;;;4.63;3.70;;;12.70;95.40;;;12.90;61.27;95812.03;5001996;28;20994;-59
2023/10/07 03:08:39;;;;;;;6.10;3.97;;;12.70;95.40;;;12.87;61.01;95808.81;5004149;28;20446;-59
2023/10/07 03:11:11;;;;;;;7.60;4.60;;;12.70;95.50;;;12.85;60.96;95813.38;5001738;28;20490;-61
2023/10/07 03:13:39;;;;;;;5.50;3.70;;;12.70;95.50;;;12.83;61.28;95816.16;5002371;28;20950;-60
2023/10/07 03:16:27;;;;;;;7.00;3.90;;;12.70;95.60;;;12.80;61.10;95824.34;5001999;28;20532;-58
2023/10/07 03:19:06;;;;;;;6.53;4.73;;;12.60;96.00;;;12.77;60.73;95824.59;5000910;28;20450;-59
2023/10/07 03:21:55;;;;;;;14.90;4.67;;;12.60;95.70;;;12.72;61.13;95822.34;5002814;28;20480;-61
2023/10/07 03:24:41;;;;;;;6.90;4.50;;;12.60;95.70;;;12.70;60.93;95824.28;5003349;28;20446;-61
2023/10/07 03:27:13;;;;;;;9.43;3.50;;;12.50;95.40;;;12.64;60.87;95827.44;5003686;28;20564;-61
2023/10/07 03:29:58;;;;;;;6.13;3.03;;;12.50;95.30;;;12.59;60.90;95820.88;5000582;28;20465;-59
2023/10/07 03:32:32;;;;;;;11.00;3.73;;;12.40;95.20;;;12.55;60.77;95815.84;5002078;28;20535;-60
2023/10/07 03:35:00;;;;;;;6.00;3.67;;;12.40;95.20;;;12.52;60.79;95810.81;5003110;28;20503;-60
2023/10/07 03:37:28;;;;;;;5.80;3.90;;;12.40;95.40;;;12.49;60.87;95819.00;5001424;28;20512;-58
2023/10/07 03:40:18;;;;;;;4.70;3.30;;;12.30;95.40;;;12.48;60.86;95824.41;5002956;28;20802;-61
2023/10/07 03:42:46;;;;;;;9.60;3.90;;;12.30;95.60;;;12.44;60.83;95818.53;5001977;28;20450;-61
2023/10/07 03:45:14;;;;;;;6.10;4.03;;;12.30;95.60;;;12.40;60.79;95822.41;5002712;28;20537;-62
2023/10/07 03:47:46;;;;;;;8.33;4.03;;;12.20;95.50;;;12.40;61.50;95821.56;5001486;28;21063;-58
2023/10/07 03:50:34;;;;;;;7.67;4.80;;;12.20;95.60;;;12.34;61.43;95822.91;5003554;28;20446;-59
2023/10/07 03:53:02;;;;;;;13.07;4.07;;;12.20;95.60;;;12.34;61.24;95820.25;5000705;28;20461;-61
2023/10/07 03:55:30;;;;;;;5.90;3.83;;;12.20;95.70;;;12.31;61.25;95825.78;5002948;28;20568;-61
2023/10/07 03:57:58;;;;;;;7.37;3.70;;;12.10;95.80;;;12.28;61.43;95821.59;5000516;28;20451;-59
2023/10/07 04:00:33;;;;;;;9.13;3.90;;;12.10;95.90;;;12.24;61.35;95824.63;5002664;28;20449;-60
2023/10/07 04:03:07;;;;;;;9.80;4.90;;;12.10;95.90;;;12.21;61.33;95831.00;5001359;28;20446;-60
2023/10/07 04:05:42;;;;;;;10.30;5.97;;;12.10;96.00;;;12.19;61.50;95830.28;5002383;28;21021;-60
2023/10/07 04:08:10;;;;;;;9.27;5.80;;;12.00;96.10;;;12.15;61.98;95826.22;5002947;28;20772;-60
2023/10/07 04:10:43;;;;;;;12.50;5.50;;;12.00;96.20;;;12.13;61.77;95836.03;5000157;28;20921;-61
2023/10/07 04:13:21;;;;;;;8.40;5.63;;;12.00;96.30;;;12.08;62.17;95836.41;5003388;28;20448;-59
2023/10/07 04:15:52;;;;;;;13.27;5.50;;;11.90;96.30;;;12.05;61.61;95836.66;5000510;28;20836;-60
2023/10/07 04:18:34;;;;;;;5.70;5.10;;;11.90;96.20;;;12.02;61.92;95832.50;5001724;28;20879;-59
2023/10/07 04:21:03;;;;;;;9.57;5.27;;;11.90;96.40;;;12.00;61.72;95836.22;5002653;28;20497;-60
2023/10/07 04:23:31;;;;;;;9.57;6.00;;;11.80;96.30;;;11.98;61.96;95835.53;4999088;28;20457;-60
2023/10/07 04:26:08;;;;;;;13.00;4.27;;;11.80;96.50;;;11.96;62.08;95845.31;5003219;28;20548;-62
2023/10/07 04:28:35;;;;;;;9.37;6.00;;;11.80;96.50;;;11.95;61.92;95833.13;5001704;28;21072;-59
2023/10/07 04:31:09;;;;;;;8.00;4.70;;;11.80;96.70;;;11.94;62.23;95837.53;4999678;28;20475;-60
2023/10/07 04:33:47;;;;;;;6.40;5.40;;;11.80;96.60;;;11.92;62.23;95833.34;5001697;28;20528;-60
2023/10/07 04:36:17;;;;;;;9.57;5.33;;;11.70;96.70;;;11.91;62.38;95832.47;5001301;28;21028;-60
2023/10/07 04:38:54;;;;;;;11.53;5.70;;;11.70;96.60;;;11.88;62.27;95816.09;4998825;28;20980;-59
2023/10/07 04:41:30;;;;;;;12.73;4.73;;;11.70;96.70;;;11.88;62.16;95821.38;4999263;28;20491;-60
2023/10/07 04:44:20;;;;;;;6.53;4.73;;;11.70;96.80;;;11.86;62.35;95825.94;4998940;28;20989;-58
2023/10/07 04:46:55;;;;;;;8.87;4.50;;;11.70;96.80;;;11.83;62.40;95822.59;5004461;28;20492;-60
2023/10/07 04:49:36;;;;;;;5.50;3.90;;;11.70;96.90;;;11.84;62.40;95837.44;5000270;28;20449;-59
2023/10/07 04:52:07;;;;;;;10.03;5.43;;;11.70;96.80;;;11.83;62.36;95830.50;5000015;28;20473;-59
2023/10/07 04:54:36;;;;;;;9.40;4.83;;;11.70;96.90;;;11.83;62.39;95830.50;5001727;28;20466;-60
2023/10/07 04:57:10;;;;;;;13.37;4.53;;;11.70;97.00;;;11.83;62.33;95829.66;4999095;28;20501;-61
2023/10/07 04:59:45;;;;;;;8.13;5.50;;;11.70;97.10;;;11.87;62.46;95824.94;5002305;28;20521;-61
2023/10/07 05:02:15;;;;;;;21.30;5.53;;;11.70;97.10;;;11.88;62.45;95837.19;4999224;28;20466;-60
2023/10/07 05:04:50;;;;;;;9.47;4.33;;;11.70;97.10;;;11.89;62.65;95834.41;5001769;28;20543;-59
2023/10/07 05:07:24;;;;;;;9.23;4.73;;;11.70;97.00;;;11.91;62.65;95836.94;5000506;28;20553;-61
2023/10/07 05:09:51;;;;;;;8.10;4.53;;;11.70;97.20;;;11.94;62.36;95839.34;4999770;28;20894;-62
2023/10/07 05:12:19;;;;;;;8.17;4.57;;;11.80;97.10;;;11.98;62.68;95848.69;5002339;28;20544;-59
2023/10/07 05:14:48;;;;;;;8.67;4.93;;;11.80;97.30;;;12.00;62.67;95852.88;5000540;28;20454;-59
2023/10/07 05:17:16;;;;;;;4.90;4.40;;;11.80;97.30;;;12.04;62.53;95853.47;4999367;28;20561;-59
2023/10/07 05:19:46;;;;;;;9.97;4.73;;;11.90;97.20;;;12.09;62.51;95851.28;5000729;28;20454;-60
2023/10/07 05:22:18;;;;;;;9.00;5.23;;;11.90;97.30;;;12.15;62.28;95849.97;4999492;28;20860;-61
2023/10/07 05:24:46;;;;;;;11.93;5.03;;;11.90;97.20;;;12.19;62.32;95856.66;5001369;28;20437;-59
2023/10/07 05:27:15;;;;;;;7.70;5.60;;;12.00;97.40;;;12.23;62.71;95847.53;4998669;28;20475;-61
2023/10/07 05:29:43;;;;;;;8.83;5.60;;;12.00;97.30;;;12.27;62.39;95853.38;4998384;28;20451;-61
2023/10/07 05:32:12;;;;;;;15.83;5.40;;;12.00;97.20;;;12.32;61.94;95861.78;5001475;28;20528;-61
2023/10/07 05:34:41;;;;;;;8.17;5.80;;;12.10;96.90;;;12.35;62.03;95859.72;4998458;28;20458;-59
2023/10/07 05:37:12;;;;;;;9.00;5.40;;;12.20;97.00;;;12.39;61.86;95868.19;5002516;28;21075;-61
2023/10/07 05:39:41;;;;;;;12.33;6.10;;;12.20;97.00;;;12.47;62.02;95867.56;4998774;28;20821;-61
2023/10/07 05:42:11;;;;;;;13.70;6.67;;;12.30;96.90;;;12.54;61.58;95866.94;5001986;28;20536;-61
2023/10/07 05:44:39;;;;;;;11.27;6.07;;;12.30;96.70;;;12.65;61.61;95867.84;4998572;28;20474;-61
2023/10/07 05:47:08;;;;;;;8.40;5.20;;;12.40;96.70;;;12.79;61.03;95878.09;4998082;28;20477;-59
2023/10/07 05:49:37;;;;;;;17.53;6.37;;;12.60;96.70;;;13.02;61.00;95877.97;4997948;28;20990;-61
2023/10/07 05:52:05;;;;;;;11.10;4.67;;;12.70;96.50;;;13.32;60.63;95878.97;5001682;28;20924;-60
2023/10/07 05:54:34;;;;;;;8.73;5.30;;;13.00;96.60;;;13.67;59.98;95877.75;4998554;28;20478;-61
2023/10/07 05:57:04;;;;;;;4.97;3.87;;;13.30;96.10;;;14.03;59.10;95886.88;5001804;28;20497;-61
2023/10/07 05:59:33;;;;;;;8.47;5.10;;;13.60;95.60;;;14.38;58.42;95884.72;4998279;28;20462;-64
2023/10/07 06:02:05;;;;;;;8.73;5.00;;;13.90;95.00;;;14.76;58.03;95888.38;5001378;28;20473;-62
2023/10/07 06:04:33;;;;;;;6.63;5.13;;;14.30;94.50;;;15.15;57.04;95888.31;4999188;28;20452;-58
2023/10/07 06:07:01;;;;;;;6.70;5.33;;;14.70;93.90;;;15.49;56.21;95885.13;5000265;28;20481;-60
2023/10/07 06:09:28;;;;;;;5.90;5.30;;;15.00;93.30;;;15.85;55.82;95880.84;4998633;28;20454;-61
2023/10/07 06:11:59;;;;;;;13.37;5.67;;;15.40;92.70;;;16.22;54.94;95881.72;5002058;28;20490;-61
2023/10/07 06:14:26;;;;;;;11.10;5.13;;;15.70;92.00;;;16.56;54.12;95868.66;5001638;28;20533;-61
2023/10/07 06:16:53;;;;;;;10.67;6.47;;;16.10;91.40;;;16.92;53.62;95879.25;4998716;28;20568;-60
2023/10/07 06:19:21;;;;;;;15.17;6.07;;;16.40;90.70;;;17.31;53.31;95876.22;5000829;28;20541;-62
2023/10/07 06:21:51;;;;;;;18.00;5.73;;;16.80;90.20;;;17.71;51.85;95869.44;4998362;28;20482;-61
2023/10/07 06:24:21;;;;;;;14.30;6.10;;;17.20;88.20;;;18.11;51.95;95875.13;5000010;28;20544;-61
2023/10/07 06:26:48;;;;;;;9.23;4.80;;;17.60;87.30;;;18.52;50.84;95877.88;4999346;28;20482;-60
2023/10/07 06:29:19;;;;;;;10.37;5.67;;;18.00;85.60;;;18.93;49.97;95879.75;4999904;28;20560;-61
2023/10/07 06:31:54;;;;;;;11.20;6.17;;;18.40;84.00;;;19.33;49.24;95873.56;4999512;28;20485;-60
2023/10/07 06:34:25;;;;;;;10.40;5.63;;;18.80;82.20;;;19.73;48.76;95881.63;4998920;28;20483;-60
2023/10/07 06:36:54;;;;;;;10.67;5.83;;;19.20;81.30;;;20.11;48.04;95881.00;5000546;28;20508;-61
2023/10/07 06:39:27;;;;;;;11.00;6.23;;;19.50;79.60;;;20.49;47.73;95878.47;4998762;28;20450;-59
2023/10/07 06:41:55;;;;;;;11.90;7.33;;;19.90;78.80;;;20.89;47.06;95887.25;5000796;28;21034;-59
2023/10/07 06:44:24;;;;;;;7.97;6.20;;;20.30;76.70;;;21.25;46.21;95878.56;4997679;28;20521;-62
2023/10/07 06:46:56;;;;;;;19.30;7.17;;;20.70;74.90;;;21.61;45.26;95881.44;5003078;28;20480;-61
2023/10/07 06:49:23;;;;;;;15.47;6.87;;;21.00;73.80;;;22.00;45.02;95880.31;5005421;28;20446;-61
2023/10/07 06:51:53;;;;;;;17.70;7.20;;;21.40;72.20;;;22.45;44.74;95885.63;5001939;28;20844;-61
2023/10/07 06:54:20;;;;;;;14.67;7.07;;;21.80;71.70;;;22.94;44.28;95889.41;5003139;28;20474;-59
2023/10/07 06:56:50;;;;;;;24.80;6.30;;;22.20;70.70;;;23.41;42.99;95889.88;5004841;28;20499;-61
2023/10/07 06:59:18;;;;;;;23.27;7.60;;;22.70;69.50;;;23.94;43.25;95892.91;5001391;28;20493;-60
2023/10/07 07:01:53;;;;;;;24.40;6.63;;;23.20;69.20;;;24.45;42.22;95886.31;5004559;28;20476;-61
2023/10/07 07:04:22;;;;;;;10.37;6.87;;;23.70;67.50;;;24.98;41.50;95879.44;5002442;28;20458;-60
2023/10/07 07:06:58;;;;;;;20.43;6.03;;;24.20;66.90;;;25.48;40.89;95887.13;5003481;28;20469;-61
2023/10/07 07:09:51;;;;;;;9.93;6.60;;;24.70;66.10;;;25.98;40.39;95882.13;5003375;28;20508;-63
2023/10/07 07:12:21;;;;;;;12.20;5.60;;;25.20;64.00;;;26.55;39.36;95876.06;5002616;28;21173;-59
2023/10/07 07:14:52;;;;;;;12.77;6.67;;;25.90;62.20;;;27.02;38.48;95876.66;5003220;28;20519;-59
2023/10/07 07:17:35;;;;;;;13.10;6.23;;;26.40;60.80;;;27.50;37.96;95867.16;5003435;28;20501;-62
2023/10/07 07:20:32;;;;;;;18.40;6.30;;;26.90;59.40;;;28.00;36.98;95864.38;5001377;28;20824;-59
2023/10/07 07:23:03;;;;;;;12.90;6.73;;;27.50;58.40;;;28.49;36.20;95860.88;5000892;28;20974;-63
2023/10/07 07:25:36;;;;;;;8.43;5.90;;;28.10;56.50;;;28.83;36.05;95874.81;5004121;28;20487;-61
2023/10/07 07:28:05;;;;;;;11.13;6.27;;;28.50;55.40;;;29.14;34.57;95865.59;5001692;28;20452;-61
2023/10/07 07:30:33;;;;;;;23.63;7.50;;;28.90;54.30;;;29.35;34.01;95872.38;5003492;28;20460;-60
2023/10/07 07:33:08;;;;;;;7.67;5.70;;;29.20;53.40;;;29.61;33.54;95868.38;5002309;28;20458;-60
2023/10/07 07:35:40;;;;;;;10.80;6.93;;;29.50;52.30;;;29.87;33.62;95869.00;5006284;28;20480;-60
2023/10/07 07:38:29;;;;;;;10.43;6.90;;;29.80;51.70;;;30.09;33.28;95871.94;5003634;28;20209;-60
2023/10/07 07:41:05;;;;;;;14.90;6.70;;;30.10;50.80;;;30.14;32.82;95869.31;5001720;28;20227;-60
2023/10/07 07:43:33;;;;;;;9.50;5.97;;;30.20;49.60;;;30.14;32.64;95857.66;5001906;28;20244;-60
2023/10/07 07:49:05;;;;;;;21.30;7.10;;;30.20;49.20;;;30.34;31.89;95855.34;4996920;28;20264;-60
2023/10/07 07:51:37;;;;;;;10.63;7.10;;;30.30;48.80;;;30.24;31.55;95849.72;5001030;28;20230;-61
2023/10/07 07:54:09;;;;;;;16.30;6.70;;;30.20;48.10;;;30.24;31.32;95857.03;5003738;28;20237;-61
2023/10/07 07:56:36;;;;;;;12.63;7.33;;;30.10;48.50;;;30.38;31.62;95856.53;5000105;28;20238;-62
2023/10/07 07:59:13;;;;;;;10.80;6.77;;;30.10;48.10;;;30.54;30.95;95851.41;5002792;28;20208;-60
2023/10/07 08:01:44;;;;;;;8.07;6.10;;;30.20;47.90;;;30.75;30.79;95853.47;5003903;28;20234;-63
2023/10/07 08:04:19;;;;;;;21.73;7.63;;;30.40;47.70;;;30.94;31.17;95850.53;5002499;28;20213;-61
2023/10/07 08:06:48;;;;;;;11.60;7.20;;;30.50;47.30;;;31.00;30.29;95846.88;5002710;28;20222;-62
2023/10/07 08:09:19;;;;;;;12.10;6.50;;;30.70;46.90;;;30.98;30.45;95856.31;5001223;28;20198;-59
2023/10/07 08:11:49;;;;;;;10.03;6.50;;;30.70;46.60;;;31.00;30.26;95851.47;5003758;28;20235;-62
2023/10/07 08:14:17;;;;;;;12.47;6.67;;;30.70;46.40;;;31.08;30.34;95861.94;5002868;28;20205;-62
2023/10/07 08:16:51;;;;;;;10.00;5.63;;;30.70;46.40;;;31.15;29.58;95845.47;5000218;28;20249;-61
2023/10/07 08:19:23;;;;;;;12.87;7.47;;;30.70;46.00;;;31.16;29.66;95847.13;5003343;28;20297;-60
2023/10/07 08:21:52;;;;;;;9.97;5.70;;;30.70;45.80;;;31.23;29.48;95845.91;5003123;28;20272;-63
2023/10/07 08:24:21;;;;;;;14.03;6.50;;;30.80;45.60;;;31.27;30.23;95843.50;5000158;28;20492;-61
2023/10/07 08:26:49;;;;;;;19.23;6.27;;;30.80;45.60;;;31.33;29.67;95838.97;5011211;28;20238;-61
2023/10/07 08:29:31;;;;;;;10.27;6.00;;;30.80;45.60;;;31.43;29.28;95842.69;4999919;28;20267;-62
2023/10/07 08:32:00;;;;;;;8.33;5.77;;;30.90;45.70;;;31.58;29.66;95838.56;5000740;28;20390;-61
2023/10/07 08:34:34;;;;;;;12.80;6.53;;;31.00;45.40;;;31.59;29.42;95832.88;5001730;28;20218;-61
2023/10/07 08:37:02;;;;;;;9.87;5.90;;;31.00;45.00;;;31.59;28.99;95830.16;4998676;28;20324;-61
2023/10/07 08:39:44;;;;;;;11.77;6.50;;;31.10;44.90;;;31.63;29.04;95825.03;4999986;28;20199;-61
2023/10/07 08:42:14;;;;;;;16.73;6.70;;;31.10;44.90;;;31.79;28.85;95818.75;5001684;28;20295;-62
2023/10/07 08:44:41;;;;;;;17.00;6.77;;;31.20;44.00;;;31.93;29.06;95819.22;5001076;28;20211;-64
2023/10/07 08:47:11;;;;;;;9.47;5.90;;;31.30;44.70;;;32.07;28.83;95814.22;5002053;28;20226;-61
2023/10/07 08:49:40;;;;;;;9.15;5.95;;;31.40;44.60;;;32.22;28.21;95816.31;5000243;28;20207;-63
2023/10/07 08:52:09;;;;;;;15.30;6.83;;;31.60;43.70;;;32.15;28.14;95805.63;5001066;28;20575;-60
2023/10/07 08:54:38;;;;;;;12.07;6.13;;;31.60;43.40;;;32.00;28.56;95805.41;5001190;28;20207;-62
2023/10/07 08:57:09;;;;;;;12.13;5.70;;;31.50;43.70;;;32.03;28.53;95804.91;5001227;28;20615;-60
2023/10/07 08:59:37;;;;;;;9.80;6.00;;;31.40;43.70;;;32.10;28.75;95805.56;5001134;28;20202;-61
2023/10/07 09:02:12;;;;;;;11.63;5.60;;;31.50;44.10;;;32.26;28.57;95800.31;5000482;28;20240;-61
2023/10/07 09:04:41;;;;;;;11.73;5.37;;;31.60;44.00;;;32.43;28.21;95802.97;5001963;28;20216;-62
2023/10/07 09:07:11;;;;;;;14.27;6.00;;;31.80;43.90;;;32.58;28.17;95803.13;4999580;28;20223;-60
2023/10/07 09:09:39;;;;;;;18.13;5.83;;;31.90;43.40;;;32.65;27.72;95800.22;5002322;28;20203;-62
2023/10/07 09:12:14;;;;;;;14.75;5.75;;;32.00;42.80;;;32.59;27.69;95790.31;5000414;28;20234;-62
2023/10/07 09:14:47;;;;;;;21.50;6.10;;;32.00;42.60;;;32.56;27.53;95788.91;5003406;28;20591;-59
2023/10/07 09:17:15;;;;;;;19.00;5.13;;;32.00;42.70;;;32.62;27.58;95792.53;4999659;28;20242;-60
2023/10/07 09:19:47;;;;;;;13.65;6.72;;;32.00;42.70;;;32.75;27.43;95797.59;5001585;28;20198;-61
2023/10/07 09:22:18;;;;;;;8.50;5.45;;;32.10;42.50;;;32.86;27.16;95793.88;4999896;28;20237;-61
2023/10/07 09:24:45;;;;;;;9.90;5.45;;;32.20;42.20;;;32.98;27.43;95785.50;5000444;28;20244;-60
2023/10/07 09:27:14;;;;;;;11.30;5.18;;;32.30;42.00;;;32.97;27.04;95783.06;4999839;28;20222;-60
2023/10/07 09:29:49;;;;;;;8.23;5.45;;;32.40;41.70;;;32.90;26.94;95793.38;5000276;28;20210;-60
2023/10/07 09:32:21;;;;;;;16.17;6.10;;;32.40;41.50;;;32.88;27.13;95780.81;5000974;28;20661;-61
2023/10/07 09:34:55;;;;;;;15.73;5.30;;;32.30;41.50;;;32.95;27.10;95780.59;4999165;28;20234;-61
2023/10/07 09:37:26;;;;;;;9.50;5.35;;;32.30;41.50;;;33.06;26.96;95784.22;4998309;28;20230;-59
2023/10/07 09:40:08;;;;;;;13.38;5.50;;;32.40;41.50;;;33.14;26.97;95778.31;5001569;28;20397;-61
2023/10/07 09:42:37;;;;;;;11.95;5.10;;;32.50;41.20;;;33.19;26.99;95783.81;4999971;28;20333;-61
2023/10/07 09:45:17;;;;;;;7.93;5.10;;;32.50;40.90;;;33.27;26.52;95770.78;4999693;28;20206;-62
2023/10/07 09:47:45;;;;;;;7.53;4.35;;;32.60;40.60;;;33.34;25.97;95777.66;5001925;28;20289;-60
2023/10/07 09:50:25;;;;;;;11.18;4.88;;;32.70;41.10;;;33.37;25.97;95773.56;4998209;28;20199;-59
2023/10/07 09:52:59;;;;;;;11.90;5.50;;;32.70;41.00;;;33.40;26.76;95762.13;4999407;28;20210;-62
2023/10/07 09:55:40;;;;;;;8.20;5.20;;;32.70;40.90;;;33.45;26.37;95764.06;5000665;28;20202;-59
2023/10/07 09:58:36;;;;;;;9.63;5.10;;;32.80;40.70;;;33.49;26.52;95755.09;5001940;28;20264;-59
2023/10/07 10:01:16;;;;;;;6.63;4.15;;;32.80;40.60;;;33.52;26.37;95746.41;5001510;28;20277;-60
2023/10/07 10:04:05;;;;;;;16.60;4.97;;;32.90;40.50;;;33.58;26.03;95745.34;5000562;28;20195;-61
2023/10/07 10:06:49;;;;;;;8.68;5.13;;;32.90;40.40;;;33.65;26.21;95738.81;4998134;28;20227;-61
2023/10/07 10:09:24;;;;;;;9.43;5.00;;;33.00;40.50;;;33.66;26.25;95735.81;5000308;28;20572;-61
2023/10/07 10:12:18;;;;;;;11.32;5.07;;;33.00;40.10;;;33.67;25.57;95728.47;4998869;28;20323;-61
2023/10/07 10:14:56;;;;;;;9.23;5.75;;;33.00;40.10;;;33.69;26.13;95723.56;4999410;28;20213;-60
2023/10/07 10:17:33;;;;;;;7.90;4.95;;;33.00;40.00;;;33.66;26.07;95719.47;5001467;28;20234;-62
2023/10/07 10:20:09;;;;;;;5.75;4.53;;;33.00;39.40;;;33.62;25.73;95717.53;4999236;28;20253;-62
2023/10/07 10:22:38;;;;;;;8.35;5.03;;;33.00;39.80;;;33.57;25.79;95710.97;5002370;28;20272;-60
2023/10/07 10:25:21;;;;;;;13.63;4.68;;;32.90;39.70;;;33.55;26.26;95702.22;5003514;28;20202;-62
2023/10/07 10:27:48;;;;;;;6.72;4.18;;;32.90;39.90;;;33.52;25.74;95700.03;5001849;28;20799;-62
2023/10/07 10:30:22;;;;;;;11.55;4.75;;;32.80;39.70;;;33.46;26.00;95692.91;5001309;28;20708;-60
2023/10/07 10:32:54;;;;;;;9.43;5.47;;;32.80;39.80;;;33.36;25.88;95685.50;5002074;28;20242;-62
2023/10/07 10:35:23;;;;;;;9.55;4.47;;;32.70;39.60;;;33.30;26.44;95681.09;5004148;28;20269;-59
2023/10/07 10:37:56;;;;;;;10.63;5.18;;;32.70;39.80;;;33.25;26.30;95670.16;5002502;28;20234;-61
2023/10/07 10:40:24;;;;;;;9.07;5.60;;;32.60;39.70;;;33.22;26.40;95670.69;5003497;28;20745;-59